createdAt,value
2016-08-11T00:00:20.058Z,14.35
2016-08-11T00:01:20.025Z,14.38
2016-08-11T00:02:20.027Z,14.38
2016-08-11T00:03:19.943Z,14.37
2016-08-11T00:04:19.882Z,14.49
2016-08-11T00:05:19.831Z,14.34
2016-08-11T00:06:19.775Z,14.29
2016-08-11T00:07:19.737Z,14.32
2016-08-11T00:08:19.670Z,14.25
2016-08-11T00:09:20.035Z,14.19
2016-08-11T00:10:19.586Z,14.25
2016-08-11T00:11:19.538Z,14.25
2016-08-11T00:12:19.474Z,14.16
2016-08-11T00:14:19.396Z,14.21
2016-08-11T00:15:19.329Z,14.09
2016-08-11T00:16:19.304Z,14.02
2016-08-11T00:17:19.282Z,13.98
2016-08-11T00:18:19.183Z,13.92
2016-08-11T00:19:19.235Z,13.8
2016-08-11T00:20:19.097Z,13.87
2016-08-11T00:21:18.356Z,13.84
2016-08-11T00:22:18.995Z,13.87
2016-08-11T00:23:18.950Z,13.65
2016-08-11T00:24:18.912Z,13.8
2016-08-11T00:25:18.855Z,13.8
2016-08-11T00:26:19.024Z,13.74
2016-08-11T00:27:18.762Z,13.62
2016-08-11T00:29:18.659Z,13.74
2016-08-11T00:30:18.815Z,13.77
2016-08-11T00:31:17.858Z,13.71
2016-08-11T00:32:18.516Z,13.7
2016-08-11T00:33:18.455Z,13.77
2016-08-11T00:34:18.412Z,13.91
2016-08-11T00:35:18.565Z,13.89
2016-08-11T00:36:18.327Z,13.94
2016-08-11T00:37:18.266Z,13.98
2016-08-11T00:38:18.218Z,13.92
2016-08-11T00:39:17.676Z,13.91
2016-08-11T00:40:18.126Z,13.99
2016-08-11T00:41:17.376Z,13.98
2016-08-11T00:42:18.036Z,14.01
2016-08-11T00:43:18.015Z,14.24
2016-08-11T00:44:17.920Z,14.2
2016-08-11T00:45:18.086Z,14.19
2016-08-11T00:46:17.122Z,14.14
2016-08-11T00:47:17.772Z,14.12
2016-08-11T00:48:17.736Z,14.2
2016-08-11T00:49:17.693Z,14.13
2016-08-11T00:50:17.628Z,14.06
2016-08-11T00:51:17.596Z,14.13
2016-08-11T00:52:17.044Z,14.17
2016-08-11T00:53:17.487Z,14.19
2016-08-11T00:54:17.429Z,14.13
2016-08-11T00:55:17.395Z,14.19
2016-08-11T00:56:17.543Z,14.31
2016-08-11T00:57:17.294Z,14.31
2016-08-11T00:58:17.246Z,14.31
2016-08-11T00:59:17.194Z,14.35
2016-08-11T01:00:17.345Z,14.38
2016-08-11T01:01:17.316Z,14.19
2016-08-11T01:02:17.055Z,14.2
2016-08-11T01:03:16.999Z,14.17
2016-08-11T01:04:16.962Z,14.34
2016-08-11T01:05:16.902Z,14.29
2016-08-11T01:06:17.057Z,14.19
2016-08-11T01:07:16.794Z,14.1
2016-08-11T01:08:16.266Z,14.1
2016-08-11T01:09:16.713Z,14.01
2016-08-11T01:10:16.887Z,13.94
2016-08-11T01:11:16.615Z,13.81
2016-08-11T01:12:16.566Z,13.8
2016-08-11T01:13:16.500Z,13.65
2016-08-11T01:14:16.467Z,13.54
2016-08-11T01:15:16.127Z,13.47
2016-08-11T01:16:16.376Z,13.4
2016-08-11T01:17:16.729Z,13.2
2016-08-11T01:18:16.288Z,13.17
2016-08-11T01:19:16.429Z,13.22
2016-08-11T01:20:15.467Z,13.2
2016-08-11T01:21:16.127Z,13.18
2016-08-11T01:22:16.072Z,13.21
2016-08-11T01:23:16.038Z,13.29
2016-08-11T01:24:15.286Z,13.41
2016-08-11T01:25:15.945Z,13.51
2016-08-11T01:26:16.090Z,13.58
2016-08-11T01:27:16.048Z,13.71
2016-08-11T01:28:15.785Z,13.63
2016-08-11T01:29:15.733Z,13.7
2016-08-11T01:30:15.695Z,13.76
2016-08-11T01:31:15.645Z,13.81
2016-08-11T01:32:15.786Z,13.73
2016-08-11T01:33:15.533Z,13.63
2016-08-11T01:34:14.796Z,13.71
2016-08-11T01:35:15.446Z,13.65
2016-08-11T01:36:15.393Z,13.58
2016-08-11T01:37:14.657Z,13.61
2016-08-11T01:38:15.306Z,13.51
2016-08-11T01:39:15.244Z,13.49
2016-08-11T01:40:14.505Z,13.52
2016-08-11T01:41:15.145Z,13.49
2016-08-11T01:42:15.097Z,13.52
2016-08-11T01:43:15.035Z,13.55
2016-08-11T01:44:14.992Z,13.61
2016-08-11T01:45:15.355Z,13.63
2016-08-11T01:46:14.906Z,13.63
2016-08-11T01:47:14.855Z,13.74
2016-08-11T01:48:14.805Z,13.77
2016-08-11T01:49:14.754Z,13.67
2016-08-11T01:50:14.731Z,13.49
2016-08-11T01:51:14.664Z,13.54
2016-08-11T01:52:14.605Z,13.41
2016-08-11T01:53:14.550Z,13.27
2016-08-11T01:54:14.505Z,13.22
2016-08-11T01:55:14.446Z,13.25
2016-08-11T01:56:14.415Z,13.18
2016-08-11T01:57:14.356Z,13.12
2016-08-11T01:58:14.312Z,13.15
2016-08-11T01:59:14.456Z,13.17
2016-08-11T02:00:14.215Z,13.22
2016-08-11T02:01:14.161Z,13.32
2016-08-11T02:02:13.813Z,13.32
2016-08-11T02:03:14.057Z,13.22
2016-08-11T02:04:14.217Z,13.18
2016-08-11T02:05:14.385Z,13.04
2016-08-11T02:06:13.915Z,13
2016-08-11T02:07:13.858Z,12.99
2016-08-11T02:08:14.062Z,13.02
2016-08-11T02:09:13.772Z,13.07
2016-08-11T02:10:13.725Z,12.96
2016-08-11T02:11:13.675Z,12.96
2016-08-11T02:12:13.672Z,13.09
2016-08-11T02:13:13.575Z,13.21
2016-08-11T02:14:12.879Z,13.3
2016-08-11T02:15:13.465Z,13.46
2016-08-11T02:16:13.645Z,13.55
2016-08-11T02:17:13.376Z,13.49
2016-08-11T02:18:12.633Z,13.49
2016-08-11T02:19:13.285Z,13.4
2016-08-11T02:20:13.225Z,13.29
2016-08-11T02:21:13.216Z,13.18
2016-08-11T02:22:13.333Z,13.11
2016-08-11T02:23:13.083Z,13.17
2016-08-11T02:24:13.035Z,13.21
2016-08-11T02:25:12.993Z,13.29
2016-08-11T02:26:12.928Z,13.25
2016-08-11T02:27:12.936Z,13.33
2016-08-11T02:28:12.841Z,13.29
2016-08-11T02:29:12.784Z,13.27
2016-08-11T02:30:12.744Z,13.12
2016-08-11T02:31:12.680Z,13
2016-08-11T02:32:12.835Z,12.96
2016-08-11T02:33:12.585Z,12.87
2016-08-11T02:34:12.747Z,12.87
2016-08-11T02:35:12.492Z,12.79
2016-08-11T02:36:12.434Z,12.79
2016-08-11T02:37:12.794Z,12.77
2016-08-11T02:38:11.668Z,12.89
2016-08-11T02:39:12.296Z,12.95
2016-08-11T02:40:11.545Z,13.06
2016-08-11T02:41:12.406Z,12.99
2016-08-11T02:42:12.140Z,12.95
2016-08-11T02:43:12.099Z,12.82
2016-08-11T02:44:12.043Z,12.85
2016-08-11T02:45:11.992Z,12.84
2016-08-11T02:46:11.265Z,12.84
2016-08-11T02:47:12.103Z,12.87
2016-08-11T02:48:11.876Z,13.09
2016-08-11T02:49:11.810Z,13.07
2016-08-11T02:50:11.953Z,13.11
2016-08-11T02:51:11.697Z,13.2
2016-08-11T02:52:11.650Z,13.27
2016-08-11T02:53:11.625Z,13.21
2016-08-11T02:54:10.851Z,13.14
2016-08-11T02:55:10.993Z,13.04
2016-08-11T02:56:11.648Z,13.03
2016-08-11T02:57:11.603Z,13.04
2016-08-11T02:58:11.355Z,13
2016-08-11T02:59:11.327Z,13
2016-08-11T03:00:11.272Z,13
2016-08-11T03:01:11.398Z,12.81
2016-08-11T03:02:11.164Z,12.87
2016-08-11T03:03:11.315Z,12.84
2016-08-11T03:04:11.055Z,12.77
2016-08-11T03:05:11.005Z,12.69
2016-08-11T03:06:10.973Z,12.62
2016-08-11T03:07:10.924Z,12.39
2016-08-11T03:08:10.865Z,12.3
2016-08-11T03:09:11.033Z,12.21
2016-08-11T03:10:10.763Z,12.21
2016-08-11T03:11:10.206Z,12.23
2016-08-11T03:12:10.860Z,12.27
2016-08-11T03:13:10.815Z,12.21
2016-08-11T03:14:10.565Z,12.48
2016-08-11T03:15:10.515Z,12.62
2016-08-11T03:16:10.455Z,12.74
2016-08-11T03:17:10.405Z,12.81
2016-08-11T03:18:10.351Z,12.69
2016-08-11T03:19:10.302Z,12.81
2016-08-11T03:20:10.271Z,12.81
2016-08-11T03:21:10.214Z,12.77
2016-08-11T03:22:10.584Z,12.75
2016-08-11T03:23:10.101Z,12.78
2016-08-11T03:24:10.054Z,12.75
2016-08-11T03:25:10.018Z,12.63
2016-08-11T03:26:09.965Z,12.59
2016-08-11T03:27:09.923Z,12.69
2016-08-11T03:28:09.855Z,12.75
2016-08-11T03:29:10.018Z,12.66
2016-08-11T03:30:09.764Z,12.79
2016-08-11T03:31:08.515Z,12.84
2016-08-11T03:32:09.665Z,12.66
2016-08-11T03:33:09.626Z,12.74
2016-08-11T03:34:09.060Z,12.71
2016-08-11T03:35:09.507Z,12.79
2016-08-11T03:36:09.453Z,12.7
2016-08-11T03:37:09.426Z,12.64
2016-08-11T03:38:09.383Z,12.6
2016-08-11T03:39:09.501Z,12.46
2016-08-11T03:40:09.479Z,12.41
2016-08-11T03:41:09.215Z,12.41
2016-08-11T03:42:08.474Z,12.26
2016-08-11T03:43:09.126Z,12.23
2016-08-11T03:44:09.467Z,12.26
2016-08-11T03:45:09.426Z,12.39
2016-08-11T03:46:10.165Z,12.37
2016-08-11T03:47:08.913Z,12.33
2016-08-11T03:48:09.074Z,12.27
2016-08-11T03:49:08.832Z,12.37
2016-08-11T03:50:08.768Z,12.46
2016-08-11T03:51:08.715Z,12.52
2016-08-11T03:52:08.683Z,12.51
2016-08-11T03:53:08.626Z,12.48
2016-08-11T03:54:08.764Z,12.69
2016-08-11T03:55:08.569Z,12.63
2016-08-11T03:56:07.758Z,12.59
2016-08-11T03:57:08.432Z,12.79
2016-08-11T03:58:08.573Z,12.79
2016-08-11T03:59:08.525Z,12.97
2016-08-11T04:00:08.275Z,13.02
2016-08-11T04:01:08.436Z,13.04
2016-08-11T04:02:08.174Z,12.87
2016-08-11T04:03:08.126Z,12.81
2016-08-11T04:04:08.074Z,12.84
2016-08-11T04:05:08.024Z,12.93
2016-08-11T04:06:07.984Z,12.87
2016-08-11T04:07:07.926Z,12.97
2016-08-11T04:08:07.875Z,12.81
2016-08-11T04:09:08.425Z,12.85
2016-08-11T04:10:07.778Z,12.79
2016-08-11T04:11:07.925Z,12.79
2016-08-11T04:12:06.966Z,12.79
2016-08-11T04:13:07.616Z,12.84
2016-08-11T04:14:07.593Z,12.51
2016-08-11T04:15:07.545Z,12.41
2016-08-11T04:16:07.476Z,12.34
2016-08-11T04:17:07.425Z,12.39
2016-08-11T04:18:07.367Z,12.54
2016-08-11T04:19:07.347Z,12.51
2016-08-11T04:20:06.832Z,12.45
2016-08-11T04:21:07.237Z,12.29
2016-08-11T04:22:07.160Z,12.21
2016-08-11T04:23:07.127Z,12.3
2016-08-11T04:24:07.089Z,12.21
2016-08-11T04:25:07.019Z,12.11
2016-08-11T04:26:06.975Z,12.09
2016-08-11T04:27:06.975Z,12.09
2016-08-11T04:28:07.078Z,12.24
2016-08-11T04:29:06.104Z,12.24
2016-08-11T04:30:06.984Z,12.29
2016-08-11T04:31:06.735Z,12.27
2016-08-11T04:32:06.881Z,12.24
2016-08-11T04:33:06.835Z,12.13
2016-08-11T04:34:06.573Z,12.11
2016-08-11T04:35:06.733Z,12.01
2016-08-11T04:36:06.684Z,11.83
2016-08-11T04:37:05.753Z,11.85
2016-08-11T04:38:06.383Z,11.89
2016-08-11T04:39:06.338Z,11.86
2016-08-11T04:40:06.475Z,11.8
2016-08-11T04:41:06.472Z,11.78
2016-08-11T04:42:05.685Z,12.02
2016-08-11T04:43:06.347Z,12.09
2016-08-11T04:44:05.774Z,12.21
2016-08-11T04:45:06.029Z,12.24
2016-08-11T04:46:05.975Z,12.42
2016-08-11T04:47:05.224Z,12.41
2016-08-11T04:48:05.895Z,12.3
2016-08-11T04:49:05.838Z,12.29
2016-08-11T04:50:05.284Z,12.15
2016-08-11T04:51:05.733Z,12.11
2016-08-11T04:52:05.777Z,12.04
2016-08-11T04:53:05.823Z,12.01
2016-08-11T04:54:05.585Z,11.97
2016-08-11T04:55:05.536Z,11.99
2016-08-11T04:56:05.495Z,12.06
2016-08-11T04:57:05.423Z,12.21
2016-08-11T04:58:05.383Z,12.29
2016-08-11T05:00:05.272Z,12.21
2016-08-11T05:01:05.434Z,12.26
2016-08-11T05:02:04.481Z,12.23
2016-08-11T05:03:05.126Z,12.13
2016-08-11T05:04:04.376Z,12.19
2016-08-11T05:05:05.023Z,12.16
2016-08-11T05:06:05.182Z,12.27
2016-08-11T05:07:04.965Z,12.21
2016-08-11T05:08:05.083Z,12.27
2016-08-11T05:09:04.146Z,12.27
2016-08-11T05:10:04.764Z,12.15
2016-08-11T05:11:04.031Z,12.13
2016-08-11T05:12:04.674Z,12.11
2016-08-11T05:13:04.825Z,12.31
2016-08-11T05:15:04.533Z,12.26
2016-08-11T05:16:04.666Z,12.16
2016-08-11T05:17:05.027Z,12.27
2016-08-11T05:18:04.575Z,12.42
2016-08-11T05:19:04.715Z,12.59
2016-08-11T05:20:04.327Z,12.63
2016-08-11T05:21:04.216Z,12.62
2016-08-11T05:22:04.170Z,12.49
2016-08-11T05:23:04.139Z,12.46
2016-08-11T05:24:04.073Z,12.33
2016-08-11T05:25:04.224Z,12.24
2016-08-11T05:26:03.978Z,12.33
2016-08-11T05:27:03.988Z,12.23
2016-08-11T05:28:03.886Z,12.15
2016-08-11T05:30:03.776Z,12.29
2016-08-11T05:31:03.932Z,12.33
2016-08-11T05:32:04.069Z,12.38
2016-08-11T05:33:04.025Z,12.31
2016-08-11T05:34:03.574Z,12.3
2016-08-11T05:35:03.534Z,12.29
2016-08-11T05:36:03.693Z,12.29
2016-08-11T05:37:03.625Z,12.29
2016-08-11T05:38:03.387Z,12.24
2016-08-11T05:39:03.332Z,12.37
2016-08-11T05:40:03.282Z,12.59
2016-08-11T05:41:03.427Z,12.52
2016-08-11T05:42:03.193Z,12.59
2016-08-11T05:43:03.126Z,12.67
2016-08-11T05:45:03.038Z,12.82
2016-08-11T05:46:02.279Z,12.84
2016-08-11T05:47:02.219Z,12.81
2016-08-11T05:48:02.183Z,12.97
2016-08-11T05:49:02.836Z,12.87
2016-08-11T05:50:03.175Z,12.81
2016-08-11T05:51:02.735Z,12.81
2016-08-11T05:52:02.687Z,12.85
2016-08-11T05:53:02.631Z,12.78
2016-08-11T05:54:02.583Z,12.79
2016-08-11T05:55:02.735Z,12.88
2016-08-11T05:56:02.676Z,13.04
2016-08-11T05:57:02.476Z,13.04
2016-08-11T05:58:02.384Z,13.04
2016-08-11T05:59:02.520Z,13.11
2016-08-11T06:00:02.276Z,12.99
2016-08-11T06:01:02.245Z,13
2016-08-11T06:02:02.382Z,13.15
2016-08-11T06:03:01.427Z,13.14
2016-08-11T06:04:02.073Z,13.07
2016-08-11T06:05:02.225Z,13.02
2016-08-11T06:06:01.985Z,13.11
2016-08-11T06:07:01.939Z,13.15
2016-08-11T06:08:01.874Z,13.06
2016-08-11T06:09:00.641Z,13.06
2016-08-11T06:10:01.784Z,13
2016-08-11T06:11:01.752Z,13.09
2016-08-11T06:12:01.684Z,13.22
2016-08-11T06:13:01.643Z,13.25
2016-08-11T06:14:00.895Z,13.43
2016-08-11T06:15:01.545Z,13.46
2016-08-11T06:16:01.498Z,13.43
2016-08-11T06:17:01.474Z,13.49
2016-08-11T06:18:01.995Z,13.46
2016-08-11T06:19:01.334Z,13.3
2016-08-11T06:20:01.536Z,13.14
2016-08-11T06:21:01.234Z,13.25
2016-08-11T06:22:01.191Z,13.06
2016-08-11T06:23:01.162Z,13.17
2016-08-11T06:24:01.114Z,13.32
2016-08-11T06:25:00.341Z,13.49
2016-08-11T06:26:01.000Z,13.41
2016-08-11T06:27:01.165Z,13.27
2016-08-11T06:28:00.913Z,13.37
2016-08-11T06:29:00.853Z,13.37
2016-08-11T06:30:00.798Z,13.24
2016-08-11T06:31:00.754Z,13.29
2016-08-11T06:32:00.715Z,13.3
2016-08-11T06:33:00.664Z,13.41
2016-08-11T06:34:00.606Z,13.38
2016-08-11T06:35:00.552Z,13.29
2016-08-11T06:36:00.504Z,13.18
2016-08-11T06:37:00.484Z,13.18
2016-08-11T06:38:00.900Z,13.24
2016-08-11T06:39:00.579Z,13.15
2016-08-11T06:40:00.319Z,13.17
2016-08-11T06:41:00.468Z,13.3
2016-08-11T06:42:01.218Z,13.32
2016-08-11T06:43:00.554Z,13.38
2016-08-11T06:44:00.313Z,13.36
2016-08-11T06:45:00.062Z,13.46
2016-08-11T06:46:00.037Z,13.47
2016-08-11T06:46:59.264Z,13.54
2016-08-11T06:47:59.919Z,13.61
2016-08-11T06:48:59.253Z,13.56
2016-08-11T06:50:00.039Z,13.52
2016-08-11T06:50:59.778Z,13.59
2016-08-11T06:51:59.726Z,13.62
2016-08-11T06:52:59.709Z,13.62
2016-08-11T06:53:59.159Z,13.62
2016-08-11T06:55:00.032Z,13.62
2016-08-11T06:55:59.768Z,13.59
2016-08-11T06:56:59.290Z,13.61
2016-08-11T06:57:59.445Z,13.73
2016-08-11T06:58:58.699Z,13.84
2016-08-11T06:59:59.427Z,13.95
2016-08-11T07:00:58.586Z,14.06
2016-08-11T07:01:59.228Z,14.02
2016-08-11T07:02:59.188Z,14.02
2016-08-11T07:03:59.348Z,14.06
2016-08-11T07:04:59.075Z,14.1
2016-08-11T07:05:59.250Z,14.04
2016-08-11T07:06:58.683Z,14.12
2016-08-11T07:07:59.171Z,14.02
2016-08-11T07:08:58.919Z,13.99
2016-08-11T07:09:58.890Z,13.98
2016-08-11T07:10:58.874Z,14.17
2016-08-11T07:11:58.958Z,14.13
2016-08-11T07:12:58.790Z,14.2
2016-08-11T07:13:58.661Z,14.19
2016-08-11T07:14:58.541Z,14.2
2016-08-11T07:15:58.767Z,14.31
2016-08-11T07:16:58.702Z,14.21
2016-08-11T07:17:57.773Z,14.19
2016-08-11T07:18:58.428Z,14.2
2016-08-11T07:19:57.694Z,14.2
2016-08-11T07:20:57.853Z,14.17
2016-08-11T07:21:58.285Z,14.19
2016-08-11T07:22:58.222Z,14.32
2016-08-11T07:23:58.407Z,14.29
2016-08-11T07:24:58.365Z,14.27
2016-08-11T07:25:58.152Z,14.37
2016-08-11T07:26:58.230Z,14.38
2016-08-11T07:27:58.164Z,14.6
2016-08-11T07:28:57.939Z,14.61
2016-08-11T07:29:58.093Z,14.75
2016-08-11T07:30:57.135Z,14.78
2016-08-11T07:31:57.826Z,14.88
2016-08-11T07:32:57.840Z,14.91
2016-08-11T07:33:57.007Z,14.83
2016-08-11T07:34:57.634Z,14.81
2016-08-11T07:35:57.578Z,14.69
2016-08-11T07:36:57.752Z,14.94
2016-08-11T07:37:58.642Z,14.93
2016-08-11T07:38:57.834Z,14.9
2016-08-11T07:39:57.398Z,14.94
2016-08-11T07:40:57.545Z,15.03
2016-08-11T07:41:57.353Z,14.91
2016-08-11T07:42:57.877Z,14.98
2016-08-11T07:43:57.202Z,15.03
2016-08-11T07:44:57.179Z,14.98
2016-08-11T07:45:58.704Z,15.13
2016-08-11T07:46:57.246Z,15.13
2016-08-11T07:47:56.323Z,15.23
2016-08-11T07:48:56.963Z,15.27
2016-08-11T07:49:56.215Z,15.23
2016-08-11T07:50:57.085Z,15.3
2016-08-11T07:51:56.974Z,15.23
2016-08-11T07:52:56.139Z,15.26
2016-08-11T07:53:56.948Z,15.28
2016-08-11T07:54:56.688Z,15.33
2016-08-11T07:55:56.641Z,15.36
2016-08-11T07:56:56.595Z,15.21
2016-08-11T07:57:56.038Z,15.27
2016-08-11T07:58:56.490Z,15.31
2016-08-11T07:59:55.977Z,15.35
2016-08-11T08:00:55.683Z,15.49
2016-08-11T08:01:56.407Z,15.52
2016-08-11T08:02:55.602Z,15.56
2016-08-11T08:03:56.421Z,15.68
2016-08-11T08:04:56.239Z,15.7
2016-08-11T08:05:56.199Z,15.76
2016-08-11T08:06:56.134Z,15.86
2016-08-11T08:07:56.211Z,15.81
2016-08-11T08:08:56.012Z,15.85
2016-08-11T08:09:55.973Z,15.84
2016-08-11T08:10:55.930Z,15.93
2016-08-11T08:11:55.862Z,15.94
2016-08-11T08:12:56.280Z,15.86
2016-08-11T08:13:56.020Z,15.89
2016-08-11T08:14:55.931Z,15.96
2016-08-11T08:15:55.245Z,16.01
2016-08-11T08:16:56.135Z,16.01
2016-08-11T08:17:56.023Z,16
2016-08-11T08:18:56.143Z,15.93
2016-08-11T08:19:55.728Z,16.06
2016-08-11T08:20:54.832Z,15.99
2016-08-11T08:21:55.406Z,15.99
2016-08-11T08:22:54.936Z,15.96
2016-08-11T08:23:55.297Z,15.94
2016-08-11T08:24:55.437Z,15.96
2016-08-11T08:25:54.701Z,15.84
2016-08-11T08:26:55.168Z,15.85
2016-08-11T08:27:54.431Z,15.89
2016-08-11T08:28:55.273Z,15.84
2016-08-11T08:29:55.014Z,15.85
2016-08-11T08:30:54.373Z,15.82
2016-08-11T08:31:54.921Z,15.93
2016-08-11T08:32:55.092Z,15.99
2016-08-11T08:33:54.443Z,16.12
2016-08-11T08:34:54.990Z,16.01
2016-08-11T08:35:55.947Z,16
2016-08-11T08:36:54.686Z,16.06
2016-08-11T08:37:54.819Z,16.04
2016-08-11T08:38:55.000Z,16.12
2016-08-11T08:39:54.764Z,16.01
2016-08-11T08:40:54.691Z,16.04
2016-08-11T08:41:54.142Z,16.07
2016-08-11T08:42:53.901Z,16.18
2016-08-11T08:43:53.725Z,16.12
2016-08-11T08:44:54.567Z,16.15
2016-08-11T08:45:53.582Z,16.25
2016-08-11T08:46:54.213Z,16.25
2016-08-11T08:47:54.167Z,16.3
2016-08-11T08:48:54.121Z,16.31
2016-08-11T08:49:54.482Z,16.26
2016-08-11T08:50:54.108Z,16.35
2016-08-11T08:51:54.098Z,16.31
2016-08-11T08:52:54.231Z,16.26
2016-08-11T08:53:54.109Z,16.35
2016-08-11T08:54:53.857Z,16.37
2016-08-11T08:55:53.803Z,16.35
2016-08-11T08:56:53.055Z,16.4
2016-08-11T08:57:53.708Z,16.41
2016-08-11T08:58:53.072Z,16.38
2016-08-11T08:59:54.249Z,16.48
2016-08-11T09:00:54.169Z,16.53
2016-08-11T09:01:54.479Z,16.53
2016-08-11T09:02:54.102Z,16.56
2016-08-11T09:03:53.416Z,16.63
2016-08-11T09:04:53.361Z,16.68
2016-08-11T09:05:53.525Z,16.7
2016-08-11T09:06:53.281Z,16.73
2016-08-11T09:07:52.522Z,16.63
2016-08-11T09:08:53.190Z,16.6
2016-08-11T09:09:52.517Z,16.63
2016-08-11T09:10:53.095Z,16.7
2016-08-11T09:11:53.037Z,16.73
2016-08-11T09:12:52.998Z,16.68
2016-08-11T09:13:52.960Z,16.71
2016-08-11T09:14:53.692Z,16.68
2016-08-11T09:15:52.842Z,16.71
2016-08-11T09:16:52.805Z,16.83
2016-08-11T09:17:52.751Z,16.75
2016-08-11T09:18:52.909Z,16.73
2016-08-11T09:19:52.671Z,16.71
2016-08-11T09:20:52.616Z,16.71
2016-08-11T09:21:53.159Z,16.65
2016-08-11T09:22:53.333Z,16.6
2016-08-11T09:23:51.972Z,16.5
2016-08-11T09:24:52.135Z,16.48
2016-08-11T09:25:52.374Z,16.53
2016-08-11T09:26:52.359Z,16.56
2016-08-11T09:27:52.283Z,16.67
2016-08-11T09:28:52.782Z,16.71
2016-08-11T09:29:52.256Z,16.73
2016-08-11T09:30:52.253Z,16.85
2016-08-11T09:31:52.433Z,16.92
2016-08-11T09:32:52.059Z,16.98
2016-08-11T09:33:51.988Z,17.08
2016-08-11T09:34:51.967Z,17.1
2016-08-11T09:35:52.111Z,17.22
2016-08-11T09:36:51.426Z,17.25
2016-08-11T09:37:51.830Z,17.26
2016-08-11T09:38:51.781Z,17.33
2016-08-11T09:39:51.769Z,17.17
2016-08-11T09:40:51.701Z,17.13
2016-08-11T09:41:51.673Z,17.15
2016-08-11T09:42:51.623Z,17.25
2016-08-11T09:43:51.050Z,17.28
2016-08-11T09:44:51.488Z,17.43
2016-08-11T09:45:51.453Z,17.35
2016-08-11T09:46:52.055Z,17.46
2016-08-11T09:47:51.465Z,17.36
2016-08-11T09:48:51.531Z,17.25
2016-08-11T09:49:50.633Z,17.32
2016-08-11T09:50:51.211Z,17.36
2016-08-11T09:51:51.195Z,17.36
2016-08-11T09:52:50.514Z,17.43
2016-08-11T09:53:50.395Z,17.46
2016-08-11T09:54:51.473Z,17.41
2016-08-11T09:55:50.994Z,17.51
2016-08-11T09:56:50.976Z,17.51
2016-08-11T09:57:51.101Z,17.59
2016-08-11T09:58:51.318Z,17.41
2016-08-11T09:59:51.231Z,17.47
2016-08-11T10:00:50.287Z,17.41
2016-08-11T10:01:51.216Z,17.54
2016-08-11T10:02:50.429Z,17.62
2016-08-11T10:03:50.672Z,17.64
2016-08-11T10:04:50.092Z,17.63
2016-08-11T10:05:50.562Z,17.71
2016-08-11T10:06:50.886Z,17.73
2016-08-11T10:07:50.638Z,17.78
2016-08-11T10:08:51.018Z,17.78
2016-08-11T10:09:49.666Z,17.78
2016-08-11T10:10:50.600Z,17.87
2016-08-11T10:11:50.641Z,17.87
2016-08-11T10:12:50.246Z,17.81
2016-08-11T10:13:50.356Z,17.85
2016-08-11T10:14:56.641Z,17.97
2016-08-11T10:15:49.386Z,17.97
2016-08-11T10:16:50.193Z,17.82
2016-08-11T10:17:50.174Z,17.87
2016-08-11T10:18:50.198Z,17.84
2016-08-11T10:19:48.562Z,17.87
2016-08-11T10:20:49.335Z,17.84
2016-08-11T10:21:49.787Z,18
2016-08-11T10:22:49.120Z,18.02
2016-08-11T10:23:49.228Z,18
2016-08-11T10:24:49.643Z,17.82
2016-08-11T10:25:49.635Z,17.87
2016-08-11T10:26:49.549Z,17.84
2016-08-11T10:27:49.634Z,17.73
2016-08-11T10:28:49.479Z,17.78
2016-08-11T10:29:48.747Z,17.81
2016-08-11T10:30:49.371Z,17.79
2016-08-11T10:31:49.908Z,17.84
2016-08-11T10:32:48.843Z,17.81
2016-08-11T10:33:49.888Z,17.92
2016-08-11T10:34:49.643Z,17.82
2016-08-11T10:35:49.436Z,17.88
2016-08-11T10:36:49.303Z,18
2016-08-11T10:37:49.052Z,17.95
2016-08-11T10:38:49.025Z,17.99
2016-08-11T10:39:49.032Z,18.03
2016-08-11T10:40:48.919Z,18.09
2016-08-11T10:41:48.938Z,18.18
2016-08-11T10:42:48.890Z,18.18
2016-08-11T10:43:48.835Z,18.31
2016-08-11T10:44:48.282Z,18.29
2016-08-11T10:45:48.758Z,18.24
2016-08-11T10:46:48.682Z,18.25
2016-08-11T10:47:47.918Z,18.25
2016-08-11T10:48:48.825Z,18.24
2016-08-11T10:49:48.656Z,18.15
2016-08-11T10:50:49.375Z,18.18
2016-08-11T10:51:48.014Z,18.27
2016-08-11T10:52:48.790Z,18.42
2016-08-11T10:53:48.394Z,18.42
2016-08-11T10:54:47.568Z,18.57
2016-08-11T10:55:48.432Z,18.49
2016-08-11T10:56:48.390Z,18.59
2016-08-11T10:57:48.140Z,18.55
2016-08-11T10:58:48.271Z,18.68
2016-08-11T11:00:48.990Z,18.83
2016-08-11T11:01:48.350Z,18.77
2016-08-11T11:02:47.951Z,18.82
2016-08-11T11:03:48.079Z,18.9
2016-08-11T11:04:47.812Z,18.83
2016-08-11T11:05:47.753Z,18.8
2016-08-11T11:06:47.866Z,18.72
2016-08-11T11:07:47.734Z,18.74
2016-08-11T11:08:47.758Z,18.59
2016-08-11T11:09:47.784Z,18.65
2016-08-11T11:10:47.782Z,18.61
2016-08-11T11:11:47.488Z,18.59
2016-08-11T11:12:47.511Z,18.62
2016-08-11T11:13:47.400Z,18.64
2016-08-11T11:15:47.312Z,18.67
2016-08-11T11:16:47.264Z,18.62
2016-08-11T11:17:47.381Z,18.65
2016-08-11T11:18:47.182Z,18.61
2016-08-11T11:19:47.347Z,18.65
2016-08-11T11:20:46.764Z,18.7
2016-08-11T11:21:45.798Z,18.72
2016-08-11T11:22:47.496Z,18.73
2016-08-11T11:23:47.343Z,18.72
2016-08-11T11:24:47.100Z,18.7
2016-08-11T11:25:46.364Z,18.79
2016-08-11T11:26:46.802Z,18.74
2016-08-11T11:27:46.743Z,18.7
2016-08-11T11:28:46.705Z,18.72
2016-08-11T11:29:46.907Z,18.7
2016-08-11T11:30:46.827Z,18.76
2016-08-11T11:31:46.852Z,18.76
2016-08-11T11:32:45.832Z,18.73
2016-08-11T11:33:46.511Z,18.62
2016-08-11T11:34:46.873Z,18.57
2016-08-11T11:35:45.703Z,18.43
2016-08-11T11:36:46.349Z,18.43
2016-08-11T11:37:46.703Z,18.43
2016-08-11T11:38:46.661Z,18.37
2016-08-11T11:39:46.539Z,18.42
2016-08-11T11:40:45.494Z,18.31
2016-08-11T11:41:46.939Z,18.25
2016-08-11T11:42:46.095Z,18.25
2016-08-11T11:43:46.555Z,18.25
2016-08-11T11:44:45.994Z,18.21
2016-08-11T11:45:46.547Z,18.24
2016-08-11T11:46:45.202Z,18.28
2016-08-11T11:47:45.859Z,18.34
2016-08-11T11:48:46.054Z,18.39
2016-08-11T11:49:45.829Z,18.4
2016-08-11T11:50:45.920Z,18.49
2016-08-11T11:51:46.294Z,18.39
2016-08-11T11:52:45.636Z,18.54
2016-08-11T11:53:45.775Z,18.46
2016-08-11T11:54:45.041Z,18.46
2016-08-11T11:55:45.506Z,18.46
2016-08-11T11:56:45.499Z,18.36
2016-08-11T11:57:45.406Z,18.34
2016-08-11T11:58:45.343Z,18.22
2016-08-11T11:59:44.611Z,18.09
2016-08-11T12:00:44.558Z,18.17
2016-08-11T12:01:45.207Z,18.22
2016-08-11T12:02:45.159Z,18.24
2016-08-11T12:03:45.144Z,18.27
2016-08-11T12:04:45.068Z,18.21
2016-08-11T12:05:44.380Z,18.22
2016-08-11T12:06:46.165Z,18.22
2016-08-11T12:07:44.607Z,18.21
2016-08-11T12:08:44.898Z,18.19
2016-08-11T12:09:44.855Z,18.18
2016-08-11T12:10:43.396Z,18.22
2016-08-11T12:11:44.744Z,18.29
2016-08-11T12:12:43.996Z,18.21
2016-08-11T12:13:44.874Z,18.03
2016-08-11T12:14:44.638Z,17.81
2016-08-11T12:15:44.680Z,17.76
2016-08-11T12:16:44.733Z,17.92
2016-08-11T12:17:45.342Z,17.99
2016-08-11T12:18:43.720Z,17.97
2016-08-11T12:19:44.392Z,17.91
2016-08-11T12:20:44.578Z,18
2016-08-11T12:21:44.305Z,17.97
2016-08-11T12:22:45.261Z,18
2016-08-11T12:23:43.839Z,17.95
2016-08-11T12:24:45.096Z,17.88
2016-08-11T12:25:45.039Z,17.97
2016-08-11T12:26:44.121Z,17.99
2016-08-11T12:27:44.810Z,18.02
2016-08-11T12:28:43.989Z,17.94
2016-08-11T12:29:43.940Z,17.92
2016-08-11T12:30:44.017Z,17.85
2016-08-11T12:31:44.077Z,17.91
2016-08-11T12:32:44.022Z,18.02
2016-08-11T12:33:43.973Z,17.99
2016-08-11T12:34:43.976Z,18.03
2016-08-11T12:35:43.890Z,17.95
2016-08-11T12:36:43.378Z,17.99
2016-08-11T12:37:44.167Z,18
2016-08-11T12:38:43.556Z,17.89
2016-08-11T12:39:43.537Z,17.84
2016-08-11T12:40:43.638Z,17.78
2016-08-11T12:41:43.604Z,17.7
2016-08-11T12:42:43.742Z,17.73
2016-08-11T12:43:43.526Z,17.7
2016-08-11T12:44:42.031Z,17.76
2016-08-11T12:45:43.407Z,17.67
2016-08-11T12:46:43.228Z,17.62
2016-08-11T12:47:43.180Z,17.62
2016-08-11T12:48:43.072Z,17.53
2016-08-11T12:49:43.032Z,17.46
2016-08-11T12:50:42.300Z,17.46
2016-08-11T12:51:42.912Z,17.41
2016-08-11T12:52:43.326Z,17.46
2016-08-11T12:53:44.085Z,17.43
2016-08-11T12:54:43.195Z,17.43
2016-08-11T12:55:42.254Z,17.4
2016-08-11T12:56:43.298Z,17.36
2016-08-11T12:57:42.647Z,17.25
2016-08-11T12:58:42.607Z,17.29
2016-08-11T12:59:42.575Z,17.23
2016-08-11T13:00:42.517Z,17.32
2016-08-11T13:01:42.353Z,17.23
2016-08-11T13:02:42.869Z,17.3